KHQM

Bowerman Airport

Hoquiam, Washington, USA
METAR KHQM 210453Z AUTO 00000KT 1/4SM FG VV002 14/14 A3002 RMK AO2 SLP168 T01440144 TSNO
Observed Flight Rules
Aug-21 @ 04:53 UTC (9 hours ago) Instrument Flight Rules
Visibility Clouds Conditions
1/4 miles
  • Vertical visibility at 200' AGL
  • Fog
Temperatures Readings
Current 14°C / 57°F
Dewpoint 14°C / 57°F
Humidity 100%
Altimeter 30.02" Hg
Pressure 1016.8 hPa
Elevation 7
METAR KHQM 210453Z AUTO 00000KT 1/4SM FG VV002 14/14 A3002 RMK AO2 SLP168 T01440144 TSNO
Observed Flight Rules
Aug-21 @ 04:53 UTC
(9 hours ago)
LIFR
Clouds
  • Vertical visibility at 200' AGL
Conditions
  • Fog
Temperature Dewpoint
14°C / 57°F 14°C / 57°F
Humidity Altimeter Pressure
100% 30.02" Hg 1016.8 hPa